Airfield :
LOGIN :

Register | Disclaimer

   EN    FR    IT 

 










Legend :    VFR   Marginal VFR   IFR   Intensive IFR   Very Intensive IFR
Visi :
Ceiling :
>= 8 km
>= 3000ft
5 to 8 km
1000 to 3000 ft
1500m to 5 km
500 to 1000 ft
800 to 1500m
200 to 500 ft
< 800m
< 200 ft
Symbols :   Thunderstorms  Fog  Heavy snow  Heavy precipitations  Wind > 20 kt
SIGMETs :     Misc.  Thunderstorms  Icing  Turbulence  Mountain Waves  Volcanic Ashes






- Airport Elevation : 68 ft
- IATA code : AGH


ESTA - Ängelholm-Helsingborg

CURRENT METAR :
  • 142320Z AUTO 15005KT 5000 FEW012/// 01/01 Q1016

EXPIRED METARs :
  • 142250Z AUTO 13004KT 0700 R14/P1500N R32/P1500N NCD 02/01 Q1016
  • 142220Z AUTO 09005KT 0250 R14/0700N R32/P1500N NCD 01/01 Q1015
  • 142150Z AUTO VRB02KT 0600 R14/P1500N R32/P1500N BCFG SCT039/// 02/01 Q1016
  • 142120Z 09004KT 7000 BR NSC M00/M00 Q1016
  • 142050Z 09004KT 4200 BR SCT004 01/01 Q1016

Expired Forecast.



MET'MAP, your aeronautical weather chart ! - Copyright ORBIFLY December 2007 - Disclaimer

ORBIFLY MET'MAP TEAM :

Programming & Development : Alexandra Zaïnal
Concept & Development : Baudouin d'Aumeries
Co-Development & Prog : Marc-Olivier Méhu
Technical & hardware support : Manuel Goepfert

Contact : metmap@orbifly.com




SOURCES & CREDITS :

   NOAA